createdAt,value
2018-05-01T00:00:09.714Z,13.37
2018-05-01T00:01:10.132Z,13.33
2018-05-01T00:02:10.551Z,13.30
2018-05-01T00:03:10.988Z,13.35
2018-05-01T00:04:11.418Z,13.28
2018-05-01T00:05:11.843Z,13.25
2018-05-01T00:06:12.283Z,13.28
2018-05-01T00:07:12.715Z,13.33
2018-05-01T00:08:13.136Z,13.25
2018-05-01T00:09:13.564Z,13.35
2018-05-01T00:10:13.994Z,13.35
2018-05-01T00:11:14.463Z,13.38
2018-05-01T00:12:14.855Z,13.35
2018-05-01T00:13:15.288Z,13.31
2018-05-01T00:14:15.716Z,13.37
2018-05-01T00:15:16.153Z,13.31
2018-05-01T00:16:16.583Z,13.28
2018-05-01T00:17:17.011Z,13.30
2018-05-01T00:18:17.438Z,13.27
2018-05-01T00:19:17.867Z,13.13
2018-05-01T00:20:18.299Z,13.15
2018-05-01T00:21:18.728Z,13.23
2018-05-01T00:22:19.168Z,13.33
2018-05-01T00:23:19.593Z,13.35
2018-05-01T00:24:20.019Z,13.30
2018-05-01T00:25:20.445Z,13.19
2018-05-01T00:26:20.883Z,13.28
2018-05-01T00:27:21.309Z,13.30
2018-05-01T00:28:21.736Z,13.28
2018-05-01T00:29:22.165Z,13.37
2018-05-01T00:30:22.599Z,13.41
2018-05-01T00:31:23.026Z,13.42
2018-05-01T00:32:23.456Z,13.46
2018-05-01T00:33:23.889Z,13.50
2018-05-01T00:34:24.320Z,13.47
2018-05-01T00:35:24.749Z,13.54
2018-05-01T00:36:25.172Z,13.50
2018-05-01T00:37:25.670Z,13.53
2018-05-01T00:38:26.039Z,13.44
2018-05-01T00:39:26.475Z,13.56
2018-05-01T00:40:26.901Z,13.54
2018-05-01T00:41:27.331Z,13.50
2018-05-01T00:42:27.758Z,13.52
2018-05-01T00:43:28.187Z,13.53
2018-05-01T00:44:28.620Z,13.54
2018-05-01T00:45:29.054Z,13.54
2018-05-01T00:46:29.484Z,13.44
2018-05-01T00:47:29.911Z,13.49
2018-05-01T00:48:30.336Z,13.52
2018-05-01T00:49:30.773Z,13.39
2018-05-01T00:50:31.203Z,13.54
2018-05-01T00:51:31.660Z,13.52
2018-05-01T00:52:32.064Z,13.54
2018-05-01T00:53:32.496Z,13.54
2018-05-01T00:54:32.965Z,13.60
2018-05-01T00:55:33.364Z,13.59
2018-05-01T00:56:33.782Z,13.59
2018-05-01T00:57:34.215Z,13.67
2018-05-01T00:58:34.646Z,13.54
2018-05-01T00:59:35.075Z,13.70
2018-05-01T01:00:35.503Z,13.63
2018-05-01T01:01:35.936Z,13.63
2018-05-01T01:02:36.365Z,13.70
2018-05-01T01:03:36.820Z,13.65
2018-05-01T01:04:37.228Z,13.75
2018-05-01T01:05:37.658Z,13.74
2018-05-01T01:06:38.088Z,13.65
2018-05-01T01:07:38.545Z,13.68
2018-05-01T01:08:38.953Z,13.67
2018-05-01T01:09:39.383Z,13.70
2018-05-01T01:10:39.812Z,13.67
2018-05-01T01:11:40.245Z,13.72
2018-05-01T01:12:40.670Z,13.85
2018-05-01T01:13:41.104Z,13.77
2018-05-01T01:14:41.537Z,13.79
2018-05-01T01:15:41.962Z,13.95
2018-05-01T01:16:42.396Z,13.92
2018-05-01T01:17:42.838Z,13.93
2018-05-01T01:18:43.250Z,14.07
2018-05-01T01:19:43.684Z,14.03
2018-05-01T01:20:44.122Z,14.10
2018-05-01T01:21:44.544Z,14.23
2018-05-01T01:22:44.980Z,14.23
2018-05-01T01:23:45.412Z,14.28
2018-05-01T01:24:45.852Z,14.36
2018-05-01T01:25:46.268Z,14.36
2018-05-01T01:26:46.697Z,14.47
2018-05-01T01:27:47.135Z,14.51
2018-05-01T01:28:47.561Z,14.59
2018-05-01T01:29:47.992Z,14.59
2018-05-01T01:30:48.435Z,14.53
2018-05-01T01:31:48.857Z,14.65
2018-05-01T01:32:49.282Z,14.65
2018-05-01T01:33:49.720Z,14.62
2018-05-01T01:34:50.163Z,14.60
2018-05-01T01:35:50.579Z,14.62
2018-05-01T01:36:51.009Z,14.54
2018-05-01T01:37:51.443Z,14.48
2018-05-01T01:38:51.875Z,14.44
2018-05-01T01:39:52.299Z,14.47
2018-05-01T01:40:52.737Z,14.32
2018-05-01T01:41:53.165Z,14.37
2018-05-01T01:42:53.605Z,14.36
2018-05-01T01:43:54.025Z,14.33
2018-05-01T01:44:54.459Z,14.32
2018-05-01T01:45:54.900Z,14.36
2018-05-01T01:46:55.318Z,14.36
2018-05-01T01:47:55.749Z,14.33
2018-05-01T01:48:56.183Z,14.33
2018-05-01T01:49:56.613Z,14.29
2018-05-01T01:50:57.042Z,14.22
2018-05-01T01:51:57.473Z,14.25
2018-05-01T01:52:57.923Z,14.28
2018-05-01T01:53:58.335Z,14.20
2018-05-01T01:54:58.765Z,14.26
2018-05-01T01:55:59.208Z,14.22
2018-05-01T01:56:59.634Z,14.23
2018-05-01T01:58:00.060Z,14.26
2018-05-01T01:59:00.492Z,14.26
2018-05-01T02:00:00.933Z,14.25
2018-05-01T02:01:01.351Z,14.18
2018-05-01T02:02:01.801Z,14.23
2018-05-01T02:03:02.219Z,14.23
2018-05-01T02:04:02.652Z,14.20
2018-05-01T02:05:03.079Z,14.20
2018-05-01T02:06:03.508Z,14.30
2018-05-01T02:07:03.961Z,14.25
2018-05-01T02:08:04.424Z,14.28
2018-05-01T02:09:04.816Z,14.23
2018-05-01T02:10:05.236Z,14.26
2018-05-01T02:11:05.668Z,14.25
2018-05-01T02:12:06.095Z,14.26
2018-05-01T02:13:06.533Z,14.32
2018-05-01T02:14:06.964Z,14.25
2018-05-01T02:15:07.395Z,14.28
2018-05-01T02:16:07.819Z,14.28
2018-05-01T02:17:08.252Z,14.33
2018-05-01T02:18:08.685Z,14.35
2018-05-01T02:19:09.116Z,14.35
2018-05-01T02:20:09.543Z,14.32
2018-05-01T02:21:09.973Z,14.35
2018-05-01T02:22:10.406Z,14.32
2018-05-01T02:23:10.837Z,14.40
2018-05-01T02:24:11.279Z,14.32
2018-05-01T02:25:11.700Z,14.35
2018-05-01T02:26:12.134Z,14.33
2018-05-01T02:27:12.560Z,14.37
2018-05-01T02:28:12.990Z,14.32
2018-05-01T02:29:13.424Z,14.36
2018-05-01T02:30:13.863Z,14.36
2018-05-01T02:31:14.287Z,14.43
2018-05-01T02:32:14.715Z,14.45
2018-05-01T02:33:15.149Z,14.40
2018-05-01T02:34:15.576Z,14.33
2018-05-01T02:35:16.009Z,14.36
2018-05-01T02:36:16.441Z,14.33
2018-05-01T02:37:16.867Z,14.36
2018-05-01T02:38:17.305Z,14.30
2018-05-01T02:39:17.735Z,14.29
2018-05-01T02:40:18.169Z,14.29
2018-05-01T02:41:18.633Z,14.26
2018-05-01T02:42:19.023Z,14.20
2018-05-01T02:43:19.453Z,14.23
2018-05-01T02:44:19.895Z,14.26
2018-05-01T02:45:20.316Z,14.23
2018-05-01T02:46:20.749Z,14.20
2018-05-01T02:47:21.183Z,14.22
2018-05-01T02:48:21.610Z,14.22
2018-05-01T02:49:22.042Z,14.17
2018-05-01T02:50:22.473Z,14.18
2018-05-01T02:51:22.900Z,14.20
2018-05-01T02:52:23.337Z,14.08
2018-05-01T02:53:23.764Z,14.17
2018-05-01T02:54:24.196Z,14.25
2018-05-01T02:55:24.627Z,14.15
2018-05-01T02:56:25.057Z,14.07
2018-05-01T02:57:25.487Z,14.04
2018-05-01T02:58:25.925Z,14.07
2018-05-01T02:59:26.348Z,14.08
2018-05-01T03:00:26.781Z,14.17
2018-05-01T03:01:27.211Z,14.22
2018-05-01T03:02:27.644Z,14.14
2018-05-01T03:03:28.074Z,14.18
2018-05-01T03:04:28.503Z,14.11
2018-05-01T03:05:28.948Z,14.15
2018-05-01T03:06:29.366Z,14.18
2018-05-01T03:07:29.796Z,14.20
2018-05-01T03:08:30.231Z,14.17
2018-05-01T03:09:30.658Z,14.08
2018-05-01T03:10:31.089Z,14.05
2018-05-01T03:11:31.519Z,14.15
2018-05-01T03:12:31.960Z,14.18
2018-05-01T03:13:32.384Z,14.14
2018-05-01T03:14:32.812Z,14.15
2018-05-01T03:15:33.245Z,14.07
2018-05-01T03:16:33.675Z,14.12
2018-05-01T03:17:34.104Z,14.18
2018-05-01T03:18:34.540Z,14.15
2018-05-01T03:19:34.967Z,14.18
2018-05-01T03:20:35.396Z,14.10
2018-05-01T03:21:35.828Z,14.04
2018-05-01T03:22:36.264Z,14.12
2018-05-01T03:23:36.689Z,14.10
2018-05-01T03:24:37.119Z,14.11
2018-05-01T03:25:37.552Z,14.10
2018-05-01T03:26:37.997Z,14.08
2018-05-01T03:27:38.408Z,14.08
2018-05-01T03:28:38.845Z,14.11
2018-05-01T03:29:39.272Z,14.05
2018-05-01T03:30:39.707Z,14.03
2018-05-01T03:31:40.140Z,14.05
2018-05-01T03:32:40.567Z,14.03
2018-05-01T03:33:40.994Z,14.00
2018-05-01T03:34:41.424Z,14.07
2018-05-01T03:35:41.857Z,14.00
2018-05-01T03:36:42.284Z,13.99
2018-05-01T03:37:42.722Z,13.97
2018-05-01T03:38:43.147Z,13.89
2018-05-01T03:39:43.579Z,13.95
2018-05-01T03:40:44.007Z,13.96
2018-05-01T03:41:44.451Z,13.97
2018-05-01T03:42:44.876Z,13.97
2018-05-01T03:43:45.300Z,13.97
2018-05-01T03:44:45.731Z,13.97
2018-05-01T03:45:46.172Z,13.92
2018-05-01T03:46:46.594Z,14.00
2018-05-01T03:47:47.020Z,13.99
2018-05-01T03:48:47.456Z,13.93
2018-05-01T03:49:47.897Z,14.03
2018-05-01T03:50:48.312Z,14.08
2018-05-01T03:51:48.748Z,14.07
2018-05-01T03:52:49.180Z,14.07
2018-05-01T03:53:49.602Z,14.18
2018-05-01T03:54:50.037Z,14.25
2018-05-01T03:55:50.541Z,14.29
2018-05-01T03:56:50.899Z,14.28
2018-05-01T03:57:51.326Z,14.32
2018-05-01T03:58:51.758Z,14.29
2018-05-01T03:59:52.189Z,14.35
2018-05-01T04:00:52.619Z,14.45
2018-05-01T04:01:53.051Z,14.40
2018-05-01T04:02:53.481Z,14.44
2018-05-01T04:03:53.910Z,14.48
2018-05-01T04:04:54.360Z,14.53
2018-05-01T04:05:54.810Z,14.54
2018-05-01T04:06:55.203Z,14.58
2018-05-01T04:07:55.636Z,14.55
2018-05-01T04:08:56.066Z,14.58
2018-05-01T04:09:56.495Z,14.59
2018-05-01T04:10:56.928Z,14.55
2018-05-01T04:11:57.357Z,14.54
2018-05-01T04:12:57.788Z,14.54
2018-05-01T04:13:58.216Z,14.58
2018-05-01T04:14:58.652Z,14.55
2018-05-01T04:15:59.088Z,14.53
2018-05-01T04:16:59.508Z,14.48
2018-05-01T04:17:59.941Z,14.51
2018-05-01T04:19:00.374Z,14.50
2018-05-01T04:20:00.807Z,14.36
2018-05-01T04:21:01.256Z,14.36
2018-05-01T04:22:01.672Z,14.35
2018-05-01T04:23:02.099Z,14.33
2018-05-01T04:24:02.527Z,14.32
2018-05-01T04:25:02.970Z,14.26
2018-05-01T04:26:03.393Z,14.28
2018-05-01T04:27:03.817Z,14.25
2018-05-01T04:28:04.251Z,14.28
2018-05-01T04:29:04.689Z,14.25
2018-05-01T04:30:05.126Z,14.28
2018-05-01T04:31:05.548Z,14.20
2018-05-01T04:32:05.973Z,14.26
2018-05-01T04:33:06.414Z,14.26
2018-05-01T04:34:06.836Z,14.28
2018-05-01T04:35:07.267Z,14.30
2018-05-01T04:36:07.704Z,14.32
2018-05-01T04:37:08.132Z,14.35
2018-05-01T04:38:08.565Z,14.32
2018-05-01T04:39:08.993Z,14.29
2018-05-01T04:40:09.431Z,14.35
2018-05-01T04:41:09.850Z,14.32
2018-05-01T04:42:10.283Z,14.35
2018-05-01T04:43:10.717Z,14.35
2018-05-01T04:44:11.150Z,14.35
2018-05-01T04:45:11.581Z,14.37
2018-05-01T04:46:12.012Z,14.37
2018-05-01T04:47:12.440Z,14.41
2018-05-01T04:48:12.870Z,14.35
2018-05-01T04:49:13.314Z,14.36
2018-05-01T04:50:13.737Z,14.40
2018-05-01T04:51:14.165Z,14.33
2018-05-01T04:52:14.599Z,14.33
2018-05-01T04:53:15.067Z,14.35
2018-05-01T04:54:15.496Z,14.41
2018-05-01T04:55:15.890Z,14.33
2018-05-01T04:56:16.328Z,14.35
2018-05-01T04:57:16.767Z,14.47
2018-05-01T04:58:17.182Z,14.51
2018-05-01T04:59:17.614Z,14.47
2018-05-01T05:00:18.049Z,14.47
2018-05-01T05:01:18.605Z,14.62
2018-05-01T05:02:18.903Z,14.59
2018-05-01T05:03:19.342Z,14.58
2018-05-01T05:04:19.771Z,14.51
2018-05-01T05:05:20.208Z,14.66
2018-05-01T05:06:20.654Z,14.66
2018-05-01T05:07:21.062Z,14.63
2018-05-01T05:08:21.500Z,14.62
2018-05-01T05:09:21.929Z,14.65
2018-05-01T05:10:22.362Z,14.68
2018-05-01T05:11:22.792Z,14.82
2018-05-01T05:12:23.222Z,14.81
2018-05-01T05:13:23.656Z,14.84
2018-05-01T05:14:24.083Z,14.82
2018-05-01T05:15:24.518Z,14.85
2018-05-01T05:16:24.944Z,14.92
2018-05-01T05:17:25.381Z,14.79
2018-05-01T05:18:25.817Z,14.85
2018-05-01T05:19:26.248Z,14.91
2018-05-01T05:20:26.678Z,14.85
2018-05-01T05:21:27.118Z,14.84
2018-05-01T05:22:27.539Z,14.82
2018-05-01T05:23:27.970Z,14.86
2018-05-01T05:24:28.402Z,14.85
2018-05-01T05:25:28.836Z,14.84
2018-05-01T05:26:29.263Z,14.85
2018-05-01T05:27:29.696Z,14.92
2018-05-01T05:28:30.130Z,14.96
2018-05-01T05:29:30.569Z,15.03
2018-05-01T05:30:30.992Z,14.99
2018-05-01T05:31:31.426Z,14.99
2018-05-01T05:32:31.854Z,14.99
2018-05-01T05:33:32.287Z,15.02
2018-05-01T05:34:32.719Z,15.04
2018-05-01T05:35:33.155Z,15.04
2018-05-01T05:36:33.587Z,15.04
2018-05-01T05:37:34.023Z,14.96
2018-05-01T05:38:34.449Z,14.99
2018-05-01T05:39:34.880Z,15.02
2018-05-01T05:40:35.312Z,14.97
2018-05-01T05:41:35.744Z,14.92
2018-05-01T05:42:36.177Z,14.86
2018-05-01T05:43:36.607Z,14.92
2018-05-01T05:44:37.052Z,14.88
2018-05-01T05:45:37.484Z,14.88
2018-05-01T05:46:37.900Z,14.84
2018-05-01T05:47:38.336Z,14.82
2018-05-01T05:48:38.767Z,14.72
2018-05-01T05:49:39.211Z,14.72
2018-05-01T05:50:39.651Z,14.73
2018-05-01T05:51:40.062Z,14.81
2018-05-01T05:52:40.507Z,14.79
2018-05-01T05:53:40.935Z,14.79
2018-05-01T05:54:41.357Z,14.73
2018-05-01T05:55:41.806Z,14.81
2018-05-01T05:56:42.227Z,14.78
2018-05-01T05:57:42.654Z,14.96
2018-05-01T05:58:43.084Z,14.92
2018-05-01T05:59:43.514Z,14.84
2018-05-01T06:00:43.945Z,14.94
2018-05-01T06:01:44.381Z,14.89
2018-05-01T06:02:44.811Z,14.89
2018-05-01T06:03:45.259Z,14.96
2018-05-01T06:04:45.673Z,15.04
2018-05-01T06:05:46.112Z,14.94
2018-05-01T06:06:46.547Z,15.06
2018-05-01T06:07:47.062Z,14.99
2018-05-01T06:08:47.399Z,15.00
2018-05-01T06:09:47.837Z,14.99
2018-05-01T06:10:48.265Z,15.00
2018-05-01T06:11:48.703Z,15.04
2018-05-01T06:12:49.125Z,15.03
2018-05-01T06:13:49.616Z,15.06
2018-05-01T06:14:49.989Z,15.11
2018-05-01T06:15:50.444Z,15.03
2018-05-01T06:16:50.855Z,15.03
2018-05-01T06:17:51.286Z,15.11
2018-05-01T06:18:51.713Z,15.18
2018-05-01T06:19:52.167Z,15.07
2018-05-01T06:20:52.581Z,15.22
2018-05-01T06:21:53.063Z,15.19
2018-05-01T06:22:53.515Z,15.21
2018-05-01T06:23:53.879Z,15.15
2018-05-01T06:24:54.306Z,15.15
2018-05-01T06:25:54.744Z,15.03
2018-05-01T06:26:55.228Z,14.91
2018-05-01T06:27:55.609Z,15.02
2018-05-01T06:28:56.036Z,15.06
2018-05-01T06:29:56.473Z,15.09
2018-05-01T06:30:56.906Z,15.21
2018-05-01T06:31:57.363Z,15.25
2018-05-01T06:32:57.784Z,15.28
2018-05-01T06:33:58.198Z,15.28
2018-05-01T06:34:58.629Z,15.35
2018-05-01T06:35:59.071Z,15.25
2018-05-01T06:36:59.527Z,15.27
2018-05-01T06:37:59.925Z,15.21
2018-05-01T06:39:00.361Z,15.37
2018-05-01T06:40:00.794Z,15.58
2018-05-01T06:41:01.267Z,15.72
2018-05-01T06:42:01.681Z,15.98
2018-05-01T06:43:02.096Z,16.20
2018-05-01T06:44:02.614Z,16.29
2018-05-01T06:45:02.965Z,16.93
2018-05-01T06:46:03.391Z,17.26
2018-05-01T06:47:03.831Z,17.74
2018-05-01T06:48:04.265Z,18.18
2018-05-01T06:49:04.714Z,18.56
2018-05-01T06:50:05.150Z,19.15
2018-05-01T06:51:05.576Z,18.41
2018-05-01T06:52:06.009Z,19.08
2018-05-01T06:53:06.441Z,19.02
2018-05-01T06:54:06.880Z,18.25
2018-05-01T06:55:07.363Z,18.86
2018-05-01T06:56:07.760Z,18.92
2018-05-01T06:57:08.198Z,18.40
2018-05-01T06:58:08.656Z,17.34
2018-05-01T06:59:09.082Z,17.33
2018-05-01T07:00:09.515Z,18.11
2018-05-01T07:01:09.958Z,17.67
2018-05-01T07:02:10.417Z,17.24
2018-05-01T07:03:10.962Z,17.95
2018-05-01T07:04:11.299Z,17.48
2018-05-01T07:05:11.723Z,18.11
2018-05-01T07:06:12.161Z,17.82
2018-05-01T07:07:12.601Z,18.49
2018-05-01T07:08:13.053Z,18.77
2018-05-01T07:09:13.491Z,18.29
2018-05-01T07:10:13.987Z,17.57
2018-05-01T07:11:14.380Z,18.53
2018-05-01T07:12:14.817Z,18.47
2018-05-01T07:13:15.263Z,19.26
2018-05-01T07:14:15.717Z,19.66
2018-05-01T07:15:16.144Z,19.64
2018-05-01T07:16:16.595Z,19.51
2018-05-01T07:17:17.032Z,20.06
2018-05-01T07:18:17.486Z,19.54
2018-05-01T07:19:17.923Z,19.88
2018-05-01T07:20:18.370Z,20.14
2018-05-01T07:21:18.833Z,19.94
2018-05-01T07:22:19.264Z,19.91
2018-05-01T07:23:19.705Z,19.82
2018-05-01T07:24:20.156Z,18.81
2018-05-01T07:25:20.647Z,19.44
2018-05-01T07:26:21.057Z,19.63
2018-05-01T07:27:21.541Z,19.64
2018-05-01T07:28:21.944Z,19.56
2018-05-01T07:29:22.426Z,19.27
2018-05-01T07:30:22.856Z,19.62
2018-05-01T07:31:23.306Z,19.55
2018-05-01T07:32:23.751Z,19.77
2018-05-01T07:33:24.189Z,19.74
2018-05-01T07:34:24.631Z,19.91
2018-05-01T07:35:25.082Z,19.81
2018-05-01T07:36:25.549Z,19.69
2018-05-01T07:37:25.983Z,19.29
2018-05-01T07:38:26.418Z,19.84
2018-05-01T07:39:26.896Z,19.92
2018-05-01T07:40:27.322Z,19.34
2018-05-01T07:41:27.771Z,19.63
2018-05-01T07:42:28.217Z,19.34
2018-05-01T07:43:28.674Z,19.59
2018-05-01T07:44:29.103Z,19.12
2018-05-01T07:45:29.588Z,19.49
2018-05-01T07:46:30.007Z,18.22
2018-05-01T07:47:30.453Z,17.98
2018-05-01T07:48:30.934Z,18.40
2018-05-01T07:49:31.353Z,18.25
2018-05-01T07:50:31.802Z,18.59
2018-05-01T07:51:32.274Z,18.93
2018-05-01T07:52:32.703Z,19.54
2018-05-01T07:53:33.137Z,19.33
2018-05-01T07:54:33.588Z,19.48
2018-05-01T07:55:34.068Z,19.26
2018-05-01T07:56:34.487Z,19.29
2018-05-01T07:57:34.941Z,19.79
2018-05-01T07:58:35.419Z,19.84
2018-05-01T07:59:35.860Z,18.71
2018-05-01T08:00:36.304Z,18.26
2018-05-01T08:01:36.774Z,17.68
2018-05-01T08:02:37.225Z,18.56
2018-05-01T08:03:37.661Z,18.43
2018-05-01T08:04:38.117Z,18.56
2018-05-01T08:05:38.528Z,18.73
2018-05-01T08:06:38.988Z,18.34
2018-05-01T08:07:39.505Z,18.16
2018-05-01T08:08:39.886Z,18.11
2018-05-01T08:09:40.329Z,17.49
2018-05-01T08:10:40.780Z,18.00
2018-05-01T08:11:41.236Z,17.57
2018-05-01T08:12:41.673Z,17.42
2018-05-01T08:13:42.115Z,17.80
2018-05-01T08:14:42.604Z,17.80
2018-05-01T08:15:42.995Z,17.27
2018-05-01T08:16:43.456Z,17.30
2018-05-01T08:17:43.907Z,16.78
2018-05-01T08:18:44.359Z,16.84
2018-05-01T08:19:44.815Z,17.01
2018-05-01T08:20:45.223Z,16.93
2018-05-01T08:21:45.666Z,16.47
2018-05-01T08:22:46.119Z,16.41
2018-05-01T08:23:46.532Z,16.43
2018-05-01T08:24:46.972Z,16.79
2018-05-01T08:25:47.414Z,16.58
2018-05-01T08:26:47.869Z,16.54
2018-05-01T08:27:48.284Z,17.02
2018-05-01T08:28:48.742Z,17.34
2018-05-01T08:29:49.186Z,17.59
2018-05-01T08:30:49.613Z,17.45
2018-05-01T08:31:50.050Z,17.29
2018-05-01T08:32:50.494Z,16.71
2018-05-01T08:33:50.945Z,16.61
2018-05-01T08:34:51.395Z,17.04
2018-05-01T08:35:51.805Z,17.20
2018-05-01T08:36:52.253Z,16.76
2018-05-01T08:37:52.723Z,16.42
2018-05-01T08:38:53.130Z,16.61
2018-05-01T08:39:53.602Z,16.36
2018-05-01T08:40:54.005Z,16.41
2018-05-01T08:41:54.442Z,16.42
2018-05-01T08:42:54.876Z,16.56
2018-05-01T08:43:55.318Z,16.31
2018-05-01T08:44:55.748Z,15.88
2018-05-01T08:45:56.198Z,16.21
2018-05-01T08:46:56.623Z,16.39
2018-05-01T08:47:57.065Z,16.64
2018-05-01T08:48:57.496Z,16.49
2018-05-01T08:49:57.932Z,16.53
2018-05-01T08:50:58.375Z,16.43
2018-05-01T08:51:58.813Z,16.33
2018-05-01T08:52:59.244Z,16.75
2018-05-01T08:53:59.694Z,16.33
2018-05-01T08:55:00.118Z,16.43
2018-05-01T08:56:00.556Z,16.01
2018-05-01T08:57:00.994Z,16.00
2018-05-01T08:58:01.433Z,16.43
2018-05-01T08:59:01.880Z,15.98
2018-05-01T09:00:02.313Z,16.35
2018-05-01T09:01:02.742Z,16.31
2018-05-01T09:02:03.185Z,15.73
2018-05-01T09:03:03.622Z,16.33
2018-05-01T09:04:04.060Z,16.12
2018-05-01T09:05:04.504Z,16.51
2018-05-01T09:06:04.941Z,17.01
2018-05-01T09:07:05.375Z,17.70
2018-05-01T09:08:05.818Z,18.13
2018-05-01T09:09:06.259Z,19.21
2018-05-01T09:10:06.709Z,20.04
2018-05-01T09:11:07.142Z,20.72
2018-05-01T09:12:07.580Z,20.78
2018-05-01T09:13:08.035Z,20.31
2018-05-01T09:14:08.482Z,20.32
2018-05-01T09:15:08.931Z,20.78
2018-05-01T09:16:09.392Z,20.74
2018-05-01T09:17:09.819Z,20.97
2018-05-01T09:18:10.331Z,21.37
2018-05-01T09:19:10.722Z,21.72
2018-05-01T09:20:11.172Z,21.37
2018-05-01T09:21:11.614Z,22.26
2018-05-01T09:22:12.072Z,22.47
2018-05-01T09:23:12.526Z,21.92
2018-05-01T09:24:12.966Z,21.00
2018-05-01T09:25:13.433Z,21.00
2018-05-01T09:26:13.875Z,21.66
2018-05-01T09:27:14.324Z,21.51
2018-05-01T09:28:14.791Z,21.40
2018-05-01T09:29:15.238Z,21.07
2018-05-01T09:30:15.705Z,21.79
2018-05-01T09:31:16.151Z,22.41
2018-05-01T09:32:16.603Z,22.80
2018-05-01T09:33:17.064Z,22.93
2018-05-01T09:34:17.580Z,23.77
2018-05-01T09:35:18.002Z,23.20
2018-05-01T09:36:18.424Z,23.06
2018-05-01T09:37:18.878Z,22.96
2018-05-01T09:38:19.325Z,22.47
2018-05-01T09:39:19.792Z,22.81
2018-05-01T09:40:20.259Z,22.84
2018-05-01T09:41:20.699Z,22.10
2018-05-01T09:42:21.200Z,21.99
2018-05-01T09:43:21.653Z,21.54
2018-05-01T09:44:22.099Z,23.03
2018-05-01T09:45:22.551Z,23.88
2018-05-01T09:46:23.024Z,24.58
2018-05-01T09:47:23.463Z,25.22
2018-05-01T09:48:23.930Z,24.23
2018-05-01T09:49:24.385Z,23.83
2018-05-01T09:50:24.836Z,24.03
2018-05-01T09:51:25.294Z,24.53
2018-05-01T09:52:25.739Z,22.76
2018-05-01T09:53:26.195Z,23.81
2018-05-01T09:54:26.664Z,24.05
2018-05-01T09:55:27.101Z,24.16
2018-05-01T09:56:27.567Z,25.26
2018-05-01T09:57:28.035Z,23.95
2018-05-01T09:58:28.475Z,24.24
2018-05-01T09:59:28.944Z,23.80
2018-05-01T10:00:29.423Z,23.92
2018-05-01T10:01:29.893Z,23.93
2018-05-01T10:02:30.353Z,23.69
2018-05-01T10:03:30.803Z,23.12
2018-05-01T10:04:31.249Z,23.41
2018-05-01T10:05:31.721Z,23.28
2018-05-01T10:06:32.149Z,24.14
2018-05-01T10:07:32.616Z,24.54
2018-05-01T10:08:33.072Z,24.80
2018-05-01T10:09:33.529Z,22.54
2018-05-01T10:10:33.995Z,21.43
2018-05-01T10:11:34.453Z,23.71
2018-05-01T10:12:34.912Z,23.78
2018-05-01T10:13:35.370Z,24.40
2018-05-01T10:14:35.880Z,25.33
2018-05-01T10:15:36.292Z,25.36
2018-05-01T10:16:36.753Z,25.23
2018-05-01T10:17:37.211Z,25.16
2018-05-01T10:18:37.679Z,26.19
2018-05-01T10:19:38.128Z,23.51
2018-05-01T10:20:38.588Z,24.85
2018-05-01T10:21:39.050Z,26.16
2018-05-01T10:22:39.508Z,25.41
2018-05-01T10:23:39.979Z,25.55
2018-05-01T10:24:40.429Z,21.48
2018-05-01T10:25:40.900Z,20.59
2018-05-01T10:26:41.359Z,22.66
2018-05-01T10:27:41.815Z,23.28
2018-05-01T10:28:42.288Z,22.26
2018-05-01T10:29:42.734Z,23.65
2018-05-01T10:30:43.206Z,24.14
2018-05-01T10:31:43.655Z,22.96
2018-05-01T10:32:44.125Z,23.20
2018-05-01T10:33:44.572Z,23.43
2018-05-01T10:34:45.052Z,23.00
2018-05-01T10:35:45.499Z,24.11
2018-05-01T10:36:45.963Z,24.42
2018-05-01T10:37:46.416Z,24.80
2018-05-01T10:38:46.921Z,24.30
2018-05-01T10:39:47.337Z,24.13
2018-05-01T10:40:47.784Z,24.16
2018-05-01T10:41:48.246Z,23.32
2018-05-01T10:42:48.709Z,22.51
2018-05-01T10:43:49.171Z,21.25
2018-05-01T10:44:49.622Z,21.00
2018-05-01T10:45:50.089Z,21.35
2018-05-01T10:46:50.552Z,22.65
2018-05-01T10:47:50.992Z,23.50
2018-05-01T10:48:51.449Z,24.13
2018-05-01T10:49:51.918Z,24.16
2018-05-01T10:50:52.375Z,24.36
2018-05-01T10:51:52.840Z,26.47
2018-05-01T10:52:53.298Z,27.75
2018-05-01T10:53:53.751Z,25.70
2018-05-01T10:54:54.207Z,25.91
2018-05-01T10:55:54.676Z,26.88
2018-05-01T10:56:55.137Z,27.77
2018-05-01T10:57:55.598Z,26.56
2018-05-01T10:58:56.065Z,26.51
2018-05-01T10:59:56.518Z,26.34
2018-05-01T11:00:56.980Z,25.88
2018-05-01T11:01:57.456Z,26.56
2018-05-01T11:02:57.912Z,25.21
2018-05-01T11:03:58.371Z,26.63
2018-05-01T11:04:58.837Z,26.92
2018-05-01T11:05:59.302Z,27.14
2018-05-01T11:06:59.764Z,26.73
2018-05-01T11:08:00.231Z,25.65
2018-05-01T11:09:00.688Z,25.28
2018-05-01T11:10:01.156Z,24.57
2018-05-01T11:11:01.612Z,24.85
2018-05-01T11:12:02.078Z,24.77
2018-05-01T11:13:02.537Z,25.70
2018-05-01T11:14:03.002Z,26.33
2018-05-01T11:15:03.461Z,24.35
2018-05-01T11:16:03.917Z,24.85
2018-05-01T11:17:04.383Z,26.13
2018-05-01T11:18:04.845Z,26.34
2018-05-01T11:19:05.305Z,26.06
2018-05-01T11:20:05.768Z,25.40
2018-05-01T11:21:06.231Z,25.23
2018-05-01T11:22:06.693Z,24.17
2018-05-01T11:23:07.153Z,24.86
2018-05-01T11:24:07.614Z,26.41
2018-05-01T11:25:08.076Z,26.84
2018-05-01T11:26:08.616Z,22.60
2018-05-01T11:27:08.997Z,24.24
2018-05-01T11:28:09.463Z,25.11
2018-05-01T11:29:09.924Z,26.02
2018-05-01T11:30:10.386Z,26.13
2018-05-01T11:31:10.862Z,26.33
2018-05-01T11:32:11.331Z,25.65
2018-05-01T11:33:11.784Z,25.84
2018-05-01T11:34:12.238Z,23.88
2018-05-01T11:35:12.708Z,24.01
2018-05-01T11:36:13.160Z,23.00
2018-05-01T11:37:13.621Z,21.73
2018-05-01T11:38:14.082Z,21.61
2018-05-01T11:39:14.540Z,20.88
2018-05-01T11:40:14.996Z,20.31
2018-05-01T11:41:15.448Z,20.50
2018-05-01T11:42:15.904Z,20.70
2018-05-01T11:43:16.353Z,20.59
2018-05-01T11:44:16.808Z,20.00
2018-05-01T11:45:17.254Z,19.27
2018-05-01T11:46:17.759Z,19.02
2018-05-01T11:47:18.146Z,19.18
2018-05-01T11:48:18.599Z,18.99
2018-05-01T11:49:19.039Z,18.55
2018-05-01T11:50:19.493Z,18.73
2018-05-01T11:51:19.929Z,18.62
2018-05-01T11:52:20.374Z,18.63
2018-05-01T11:53:20.818Z,18.53
2018-05-01T11:54:21.259Z,18.44
2018-05-01T11:55:21.706Z,18.44
2018-05-01T11:56:22.144Z,18.38
2018-05-01T11:57:22.588Z,18.41
2018-05-01T11:58:23.028Z,18.16
2018-05-01T11:59:23.466Z,18.04
2018-05-01T12:00:23.906Z,18.01
2018-05-01T12:01:24.345Z,18.29
2018-05-01T12:02:24.787Z,18.22
2018-05-01T12:03:25.226Z,18.25
2018-05-01T12:04:25.732Z,18.20
2018-05-01T12:05:26.103Z,18.20
2018-05-01T12:06:26.543Z,18.28
2018-05-01T12:07:26.981Z,18.31
2018-05-01T12:08:27.418Z,18.25
2018-05-01T12:09:27.858Z,18.18
2018-05-01T12:10:28.309Z,18.15
2018-05-01T12:11:28.739Z,18.34
2018-05-01T12:12:29.177Z,18.10
2018-05-01T12:13:29.609Z,17.85
2018-05-01T12:14:30.046Z,18.07
2018-05-01T12:15:30.480Z,18.11
2018-05-01T12:16:30.922Z,18.01
2018-05-01T12:17:31.356Z,17.98
2018-05-01T12:18:31.867Z,17.98
2018-05-01T12:19:32.233Z,18.07
2018-05-01T12:20:32.662Z,18.08
2018-05-01T12:21:33.111Z,18.22
2018-05-01T12:22:33.549Z,18.07
2018-05-01T12:23:33.983Z,18.18
2018-05-01T12:24:34.419Z,18.10
2018-05-01T12:25:34.854Z,18.05
2018-05-01T12:26:35.309Z,18.08
2018-05-01T12:27:35.733Z,17.86
2018-05-01T12:28:36.166Z,18.05
2018-05-01T12:29:36.602Z,18.01
2018-05-01T12:30:37.043Z,17.98
2018-05-01T12:31:37.475Z,18.01
2018-05-01T12:32:37.915Z,18.00
2018-05-01T12:33:38.370Z,17.79
2018-05-01T12:34:38.792Z,17.85
2018-05-01T12:35:39.226Z,18.07
2018-05-01T12:36:39.767Z,17.98
2018-05-01T12:37:40.143Z,18.04
2018-05-01T12:38:40.567Z,18.07
2018-05-01T12:39:41.016Z,18.10
2018-05-01T12:40:41.524Z,17.98
2018-05-01T12:41:41.895Z,18.26
2018-05-01T12:42:42.283Z,18.43
2018-05-01T12:43:42.717Z,18.01
2018-05-01T12:44:43.156Z,18.03
2018-05-01T12:45:43.592Z,18.11
2018-05-01T12:46:44.030Z,18.11
2018-05-01T12:47:44.467Z,18.11
2018-05-01T12:48:44.940Z,18.01
2018-05-01T12:49:45.341Z,17.92
2018-05-01T12:50:45.780Z,17.78
2018-05-01T12:51:46.213Z,17.57
2018-05-01T12:52:46.649Z,17.41
2018-05-01T12:53:47.149Z,17.22
2018-05-01T12:54:47.521Z,17.36
2018-05-01T12:55:47.961Z,17.39
2018-05-01T12:56:48.399Z,17.57
2018-05-01T12:57:48.872Z,17.63